Time;durP1;ratioP1;P1;durP2;ratioP2;P2;SDS_P1;SDS_P2;PMS_P1;PMS_P2;Temp;Humidity;BMP_temperature;BMP_pressure;BME280_temperature;BME280_humidity;BME280_pressure;Samples;Min_cycle;Max_cycle;Signal;HPM_P1;HPM_P2
2022/11/18 00:00:35;;;;;;;2.65;1.30;;;;;;;6.96;100.00;96697.25;15281220;19;20058;-75
2022/11/18 00:05:59;;;;;;;3.00;1.50;;;;;;;6.94;100.00;96700.13;15286170;19;20031;-75
2022/11/18 00:17:08;;;;;;;2.63;1.50;;;;;;;6.88;100.00;96701.69;15279974;19;20086;-75
2022/11/18 00:22:33;;;;;;;2.60;1.50;;;;;;;6.84;100.00;96699.56;15283478;19;20017;-76
2022/11/18 00:28:00;;;;;;;2.33;1.45;;;;;;;6.82;100.00;96702.41;15280230;19;20007;-75
2022/11/18 00:33:25;;;;;;;1.95;1.40;;;;;;;6.78;100.00;96706.47;15277294;19;20017;-74
2022/11/18 00:38:56;;;;;;;2.55;1.50;;;;;;;6.71;100.00;96698.31;15280899;19;20011;-74
2022/11/18 00:44:23;;;;;;;1.80;1.40;;;;;;;6.66;100.00;96703.34;15282934;19;20014;-74
2022/11/18 00:49:48;;;;;;;3.47;1.67;;;;;;;6.55;100.00;96693.06;15278102;19;20014;-75
2022/11/18 00:55:13;;;;;;;2.58;1.77;;;;;;;6.56;100.00;96703.63;15280503;19;20049;-74
2022/11/18 01:00:40;;;;;;;3.15;1.80;;;;;;;6.54;100.00;96712.81;15282830;19;20010;-74
2022/11/18 01:06:05;;;;;;;2.58;1.35;;;;;;;6.51;100.00;96699.81;15277354;19;20077;-74
2022/11/18 01:17:10;;;;;;;1.48;1.38;;;;;;;6.41;100.00;96700.84;15277157;19;20345;-76
2022/11/18 01:22:35;;;;;;;2.70;1.60;;;;;;;6.36;100.00;96681.84;15284228;19;20018;-75
2022/11/18 01:27:59;;;;;;;2.72;1.48;;;;;;;6.30;100.00;96683.38;15291421;19;20017;-76
2022/11/18 01:33:27;;;;;;;4.18;1.70;;;;;;;6.27;100.00;96693.63;15293574;19;20037;-75
2022/11/18 01:38:59;;;;;;;55.35;2.90;;;;;;;6.15;100.00;96677.13;15284784;19;20063;-74
2022/11/18 01:44:38;;;;;;;;;;;;;;;5.99;100.00;96686.03;15293557;19;20027;-75
2022/11/18 01:50:09;;;;;;;3.17;1.83;;;;;;;6.01;100.00;96687.56;15287939;19;19919;-75
2022/11/18 01:55:37;;;;;;;2.53;1.48;;;;;;;6.00;100.00;96677.06;15292974;19;20473;-76
2022/11/18 02:01:03;;;;;;;1.70;1.60;;;;;;;5.89;100.00;96672.88;15293962;19;20488;-75
2022/11/18 02:06:30;;;;;;;323.50;7.13;;;;;;;5.84;100.00;96684.09;15290109;19;20025;-75
2022/11/18 02:11:56;;;;;;;493.73;8.80;;;;;;;5.69;100.00;96675.19;15283202;19;20024;-75
2022/11/18 02:17:32;;;;;;;73.20;3.40;;;;;;;5.65;100.00;96673.84;15289348;19;20006;-76
2022/11/18 02:23:40;;;;;;;195.45;5.47;;;;;;;5.51;100.00;96678.91;15293696;19;20013;-76
2022/11/18 02:29:10;;;;;;;9.43;3.25;;;;;;;5.45;100.00;96684.09;15290497;19;20022;-74
2022/11/18 02:34:46;;;;;;;4.07;3.60;;;;;;;5.47;100.00;96690.09;15306411;19;20007;-74
2022/11/18 02:40:24;;;;;;;3.60;3.25;;;;;;;5.48;100.00;96699.78;15346731;19;20015;-75
2022/11/18 02:45:57;;;;;;;3.70;3.40;;;;;;;5.51;100.00;96704.78;15358583;19;20015;-75
2022/11/18 02:51:24;;;;;;;4.05;3.25;;;;;;;5.51;100.00;96716.28;15287415;19;20449;-75
2022/11/18 02:56:50;;;;;;;4.05;3.75;;;;;;;5.52;100.00;96723.31;15287886;19;20019;-75
2022/11/18 03:02:23;;;;;;;4.32;4.03;;;;;;;5.50;100.00;96725.31;15288477;19;20021;-74
2022/11/18 03:07:52;;;;;;;5.03;4.63;;;;;;;5.50;100.00;96716.47;15283979;19;20014;-74
2022/11/18 03:13:26;;;;;;;5.05;4.65;;;;;;;5.46;100.00;96742.69;15283924;19;20014;-73
2022/11/18 03:18:59;;;;;;;36.85;5.47;;;;;;;5.40;100.00;96749.56;15281100;19;20028;-73
2022/11/18 03:24:29;;;;;;;13.18;5.85;;;;;;;5.38;100.00;96764.06;15284389;19;20018;-74
2022/11/18 03:30:02;;;;;;;44.00;6.57;;;;;;;5.38;100.00;96769.41;15281450;19;20469;-74
2022/11/18 03:35:32;;;;;;;60.72;6.35;;;;;;;5.32;100.00;96770.91;15284980;19;20031;-73
2022/11/18 03:41:02;;;;;;;18.97;6.20;;;;;;;5.31;100.00;96768.41;15294523;19;20013;-76
2022/11/18 03:46:32;;;;;;;6.88;6.15;;;;;;;5.30;100.00;96761.41;15283359;19;20060;-76
2022/11/18 03:52:08;;;;;;;19.70;5.90;;;;;;;5.22;100.00;96755.09;15292021;19;20014;-76
2022/11/18 03:57:36;;;;;;;94.88;7.38;;;;;;;5.15;100.00;96756.75;15286465;19;20022;-77
2022/11/18 04:03:01;;;;;;;146.00;8.10;;;;;;;5.08;100.00;96769.09;15286650;19;20026;-76
2022/11/18 04:08:39;;;;;;;205.55;8.75;;;;;;;4.98;100.00;96773.78;15285336;19;20373;-75
2022/11/18 04:14:06;;;;;;;440.50;14.02;;;;;;;4.84;100.00;96773.44;15287671;19;20025;-75
2022/11/18 04:19:31;;;;;;;250.02;13.43;;;;;;;4.75;100.00;96785.09;15279415;19;20018;-75
2022/11/18 04:25:00;;;;;;;410.98;16.70;;;;;;;4.69;100.00;96799.09;15281333;19;20472;-75
2022/11/18 04:30:26;;;;;;;286.52;15.32;;;;;;;4.70;100.00;96808.75;15281999;19;20065;-75
2022/11/18 04:35:50;;;;;;;425.70;20.15;;;;;;;4.63;100.00;96825.44;15280241;19;20020;-75
2022/11/18 04:41:18;;;;;;;342.08;19.20;;;;;;;4.56;100.00;96821.72;15282991;19;20022;-76
2022/11/18 04:46:44;;;;;;;286.88;18.38;;;;;;;4.59;100.00;96833.91;15279182;19;20022;-77
2022/11/18 04:52:10;;;;;;;273.98;19.23;;;;;;;4.59;100.00;96840.09;15278199;19;20363;-77
2022/11/18 04:57:37;;;;;;;68.18;17.52;;;;;;;4.60;100.00;96839.09;15283111;19;20755;-76
2022/11/18 05:03:03;;;;;;;57.85;17.52;;;;;;;4.62;100.00;96847.78;15299034;19;20018;-76
2022/11/18 05:08:27;;;;;;;146.10;19.08;;;;;;;4.67;100.00;96863.28;15294837;19;20094;-76
2022/11/18 05:13:55;;;;;;;209.95;20.95;;;;;;;4.69;100.00;96861.28;15296359;19;20018;-76
2022/11/18 05:19:20;;;;;;;251.25;21.25;;;;;;;4.72;100.00;96865.47;15293588;19;20361;-77
2022/11/18 05:24:45;;;;;;;441.90;24.27;;;;;;;4.73;100.00;96872.47;15301156;19;20077;-77
2022/11/18 05:30:14;;;;;;;447.63;23.77;;;;;;;4.65;100.00;96875.94;15297029;19;20049;-76
2022/11/18 05:35:39;;;;;;;565.33;26.35;;;;;;;4.58;100.00;96878.41;15300715;19;20018;-77
2022/11/18 05:47:03;;;;;;;668.42;30.48;;;;;;;4.47;100.00;96894.72;15338770;19;20018;-77
2022/11/18 05:52:28;;;;;;;812.17;39.85;;;;;;;4.35;100.00;96902.16;15301940;19;20067;-78
2022/11/18 05:57:54;;;;;;;848.45;43.13;;;;;;;4.30;100.00;96909.81;15287076;19;20010;-78
2022/11/18 06:03:29;;;;;;;949.97;43.28;;;;;;;4.22;100.00;96913.25;15292934;19;20022;-78
2022/11/18 06:09:02;;;;;;;565.80;40.85;;;;;;;4.18;100.00;96911.06;15293639;19;20021;-78
2022/11/18 06:14:30;;;;;;;864.43;47.77;;;;;;;4.10;100.00;96923.38;15298877;19;20838;-77
2022/11/18 06:19:59;;;;;;;829.58;50.13;;;;;;;4.10;100.00;96941.16;15300479;19;20021;-77
2022/11/18 06:25:25;;;;;;;843.45;49.45;;;;;;;4.06;100.00;96934.50;15317145;19;20022;-79
2022/11/18 06:30:54;;;;;;;727.22;50.58;;;;;;;4.03;100.00;96942.81;15294226;19;20007;-77
2022/11/18 06:36:21;;;;;;;679.60;51.65;;;;;;;3.99;100.00;96940.44;15307207;19;20615;-79
2022/11/18 06:41:46;;;;;;;530.03;59.33;;;;;;;3.96;100.00;96950.59;15327584;19;20019;-79
2022/11/18 06:47:12;;;;;;;576.20;55.53;;;;;;;3.88;100.00;96956.69;15360122;19;20017;-78
2022/11/18 06:52:39;;;;;;;867.38;59.17;;;;;;;3.84;100.00;96963.31;15316201;19;20046;-78
2022/11/18 06:58:05;;;;;;;687.83;56.67;;;;;;;3.79;100.00;96976.25;15318375;19;20019;-80
2022/11/18 07:03:30;;;;;;;558.00;54.60;;;;;;;3.78;100.00;96958.59;15312587;19;20035;-80
2022/11/18 07:08:58;;;;;;;636.65;65.10;;;;;;;3.78;100.00;96979.91;15308170;19;20489;-78
2022/11/18 07:14:22;;;;;;;688.00;59.72;;;;;;;3.78;100.00;96990.56;15321777;19;20002;-78
2022/11/18 07:19:48;;;;;;;459.70;49.05;;;;;;;3.75;100.00;96993.53;15315841;19;20031;-78
2022/11/18 07:25:15;;;;;;;589.13;56.53;;;;;;;3.75;100.00;97002.38;15321744;19;20018;-79
2022/11/18 07:30:40;;;;;;;722.72;61.33;;;;;;;3.75;100.00;97001.53;15311647;19;20014;-78
2022/11/18 07:36:06;;;;;;;733.72;58.78;;;;;;;3.65;100.00;96997.13;15299706;19;20024;-79
2022/11/18 07:41:36;;;;;;;738.55;57.03;;;;;;;3.61;100.00;97003.72;15297359;19;20018;-79
2022/11/18 07:47:01;;;;;;;672.42;56.30;;;;;;;3.57;100.00;96999.72;15296171;19;20680;-79
2022/11/18 07:52:26;;;;;;;541.97;51.60;;;;;;;3.52;100.00;96999.31;15292661;19;20018;-81
2022/11/18 07:57:53;;;;;;;481.13;50.03;;;;;;;3.50;100.00;97010.13;15297514;19;20022;-79
2022/11/18 08:03:18;;;;;;;741.50;64.93;;;;;;;3.50;100.00;97017.28;15301529;19;20045;-78
2022/11/18 08:08:43;;;;;;;510.75;52.60;;;;;;;3.53;100.00;97027.63;15290421;19;20659;-76
2022/11/18 08:14:10;;;;;;;579.97;51.78;;;;;;;3.55;100.00;97038.97;15293286;19;20029;-77
2022/11/18 08:19:36;;;;;;;657.90;54.35;;;;;;;3.52;100.00;97042.78;15296771;19;20023;-78
2022/11/18 08:25:24;;;;;;;626.35;51.35;;;;;;;3.42;100.00;97041.97;15303270;19;20035;-79
2022/11/18 08:31:11;;;;;;;530.60;48.40;;;;;;;3.36;100.00;97048.75;15299976;19;20042;-80
2022/11/18 08:36:38;;;;;;;453.73;46.60;;;;;;;3.32;100.00;97054.53;15325244;19;20373;-79
2022/11/18 08:42:05;;;;;;;533.78;52.17;;;;;;;3.21;100.00;97058.25;15359746;19;20118;-79
2022/11/18 08:47:33;;;;;;;383.88;44.53;;;;;;;3.21;100.00;97068.88;15303476;19;20018;-78
2022/11/18 08:52:58;;;;;;;399.52;38.83;;;;;;;3.19;100.00;97070.84;15303498;19;20067;-78
2022/11/18 08:58:22;;;;;;;411.58;37.58;;;;;;;3.13;100.00;97077.59;15304723;19;20011;-78
2022/11/18 09:03:49;;;;;;;398.00;35.72;;;;;;;3.11;100.00;97074.25;15313293;19;20022;-79
2022/11/18 09:09:15;;;;;;;325.45;34.42;;;;;;;3.08;100.00;97078.03;15304528;19;20018;-77
2022/11/18 09:14:40;;;;;;;214.30;35.28;;;;;;;3.07;100.00;97087.00;15314186;19;20014;-80
2022/11/18 09:20:27;;;;;;;203.35;31.00;;;;;;;3.05;100.00;97083.66;15308152;19;20046;-79
2022/11/18 09:26:01;;;;;;;412.52;35.50;;;;;;;3.00;100.00;97099.22;15311191;19;20017;-79
2022/11/18 09:31:27;;;;;;;308.58;37.65;;;;;;;2.95;100.00;97117.44;15306859;19;20489;-79
2022/11/18 09:37:01;;;;;;;277.88;31.60;;;;;;;2.89;100.00;97123.31;15308050;19;20037;-79
2022/11/18 09:42:40;;;;;;;261.10;32.00;;;;;;;2.80;100.00;97124.19;15304670;19;20705;-79
2022/11/18 09:48:07;;;;;;;134.23;30.13;;;;;;;2.79;100.00;97128.69;15300521;19;20019;-80
2022/11/18 09:53:34;;;;;;;209.13;28.60;;;;;;;2.74;100.00;97131.78;15301486;19;20014;-78
2022/11/18 09:59:00;;;;;;;183.93;28.45;;;;;;;2.66;100.00;97133.47;15300666;19;20634;-79
2022/11/18 10:04:25;;;;;;;70.93;25.10;;;;;;;2.64;100.00;97140.75;15304634;19;21023;-80
2022/11/18 10:09:55;;;;;;;59.78;25.23;;;;;;;2.59;100.00;97138.53;15299590;19;20015;-79
2022/11/18 10:15:29;;;;;;;36.85;20.08;;;;;;;2.61;100.00;97149.88;15302646;19;20015;-79
2022/11/18 10:21:03;;;;;;;17.15;12.43;;;;;;;2.57;100.00;97145.81;15317164;19;20025;-79
2022/11/18 10:26:41;;;;;;;9.45;7.38;;;;;;;2.54;100.00;97138.97;15310436;19;20096;-79
2022/11/18 10:32:11;;;;;;;10.52;8.13;;;;;;;2.58;100.00;97147.50;15313255;19;20031;-79
2022/11/18 10:37:37;;;;;;;12.55;9.38;;;;;;;2.48;100.00;97136.84;15315089;19;20645;-79
2022/11/18 10:43:56;;;;;;;21.08;14.10;;;;;;;2.35;100.00;97142.47;15319088;19;20011;-77
2022/11/18 10:49:29;;;;;;;41.67;18.00;;;;;;;2.26;100.00;97161.94;15330402;19;20014;-77
2022/11/18 10:54:54;;;;;;;14.52;11.05;;;;;;;2.19;100.00;97161.66;15332202;19;20035;-78
2022/11/18 11:00:52;;;;;;;16.80;11.95;;;;;;;2.29;100.00;97161.66;15314890;19;20048;-78
2022/11/18 11:06:37;;;;;;;12.10;9.30;;;;;;;2.22;100.00;97173.81;15313531;19;20396;-79
2022/11/18 11:12:06;;;;;;;11.43;9.02;;;;;;;2.22;100.00;97173.81;15312371;19;20011;-79
2022/11/18 11:17:37;;;;;;;14.07;11.00;;;;;;;2.21;100.00;97177.44;15304585;19;20031;-79
2022/11/18 11:23:10;;;;;;;27.33;15.70;;;;;;;2.05;100.00;97183.31;15311531;19;20014;-79
2022/11/18 11:28:50;;;;;;;203.27;23.52;;;;;;;1.92;100.00;97191.56;15345662;19;20006;-78
2022/11/18 11:34:26;;;;;;;180.15;29.05;;;;;;;1.83;100.00;97198.50;15292550;19;20013;-78
2022/11/18 11:40:14;;;;;;;61.35;23.33;;;;;;;1.70;100.00;97193.47;15293873;19;20029;-79
2022/11/18 11:45:49;;;;;;;172.57;28.50;;;;;;;1.63;100.00;97203.78;15301156;19;20006;-78
2022/11/18 11:51:21;;;;;;;126.50;23.92;;;;;;;1.48;100.00;97207.78;15303535;19;20010;-78
2022/11/18 11:56:53;;;;;;;40.47;22.67;;;;;;;1.40;100.00;97223.53;15300051;19;20056;-78
2022/11/18 12:02:51;;;;;;;25.13;16.52;;;;;;;1.32;100.00;97229.50;15300621;19;20015;-79
2022/11/18 12:08:21;;;;;;;23.08;15.63;;;;;;;1.29;100.00;97224.44;15298674;19;20016;-79
2022/11/18 12:13:56;;;;;;;20.60;15.37;;;;;;;1.22;100.00;97230.28;15287066;19;20098;-77
2022/11/18 12:19:24;;;;;;;25.83;19.08;;;;;;;1.14;100.00;97232.75;15293285;19;20019;-78
2022/11/18 12:24:50;;;;;;;22.20;15.60;;;;;;;1.07;100.00;97232.44;15289440;19;20007;-79
2022/11/18 12:30:21;;;;;;;24.27;15.65;;;;;;;1.02;100.00;97233.78;15297994;19;20011;-78
2022/11/18 12:35:46;;;;;;;11.85;10.63;;;;;;;0.94;100.00;97237.13;15302465;19;20039;-78
2022/11/18 12:47:54;;;;;;;10.52;8.82;;;;;;;1.06;100.00;97241.34;15294802;19;20046;-80
2022/11/18 12:53:41;;;;;;;9.70;8.70;;;;;;;1.04;100.00;97245.97;15288195;19;20081;-77
2022/11/18 12:59:06;;;;;;;10.43;8.70;;;;;;;0.84;100.00;97237.06;15287181;19;20019;-79
2022/11/18 13:04:30;;;;;;;8.65;7.75;;;;;;;0.75;100.00;97238.66;15303296;19;20014;-80
2022/11/18 13:10:22;;;;;;;11.32;10.13;;;;;;;0.56;100.00;97247.31;15305578;19;20367;-79
2022/11/18 13:27:09;;;;;;;15.52;13.40;;;;;;;0.40;100.00;97260.16;15307778;19;20704;-78
2022/11/18 13:32:35;;;;;;;15.75;14.02;;;;;;;0.39;100.00;97277.00;15307538;19;20029;-80
2022/11/18 13:38:01;;;;;;;16.77;13.55;;;;;;;0.35;100.00;97286.16;15310891;19;20018;-78
2022/11/18 13:43:30;;;;;;;16.60;13.75;;;;;;;0.38;100.00;97296.53;15300299;19;20023;-78
2022/11/18 13:49:02;;;;;;;13.15;11.80;;;;;;;0.29;100.00;97300.75;15295982;19;20010;-77
2022/11/18 13:54:29;;;;;;;13.40;12.00;;;;;;;0.22;100.00;97305.69;15294899;19;20021;-76
2022/11/18 13:59:57;;;;;;;10.68;9.68;;;;;;;0.18;100.00;97298.97;15297514;19;20027;-78
2022/11/18 14:05:23;;;;;;;9.25;8.38;;;;;;;0.14;100.00;97305.50;15316384;19;20018;-77
2022/11/18 14:10:50;;;;;;;9.63;8.70;;;;;;;0.11;100.00;97313.66;15354059;19;20011;-77
2022/11/18 14:16:36;;;;;;;9.70;8.80;;;;;;;0.05;100.00;97324.78;15305535;19;20018;-78
2022/11/18 14:22:01;;;;;;;9.75;8.85;;;;;;;0.04;100.00;97323.09;15300228;19;21913;-78
2022/11/18 14:27:40;;;;;;;10.32;9.30;;;;;;;-0.01;100.00;97329.56;15294106;19;20482;-77
2022/11/18 14:33:26;;;;;;;10.13;8.95;;;;;;;-0.06;100.00;97329.09;15288224;19;20373;-77
2022/11/18 14:38:53;;;;;;;10.23;9.32;;;;;;;-0.06;100.00;97339.69;15290133;19;20011;-77
2022/11/18 14:44:37;;;;;;;9.65;8.75;;;;;;;-0.08;100.00;97344.28;15311090;19;20424;-79
2022/11/18 14:50:10;;;;;;;7.50;6.90;;;;;;;-0.16;100.00;97349.31;15307316;19;20014;-77
2022/11/18 14:55:35;;;;;;;7.40;6.80;;;;;;;-0.21;100.00;97357.63;15349600;19;20055;-76
2022/11/18 15:01:01;;;;;;;8.13;7.43;;;;;;;-0.27;100.00;97363.41;15321854;19;20017;-78
2022/11/18 15:06:30;;;;;;;9.63;8.82;;;;;;;-0.41;100.00;97371.56;15319388;19;20018;-81
2022/11/18 15:11:55;;;;;;;12.13;11.07;;;;;;;-0.47;100.00;97376.34;15316927;19;20034;-79
2022/11/18 15:17:23;;;;;;;13.13;12.02;;;;;;;-0.49;100.00;97390.66;15317644;19;20010;-79
2022/11/18 15:22:51;;;;;;;14.85;13.55;;;;;;;-0.52;100.00;97402.34;15322008;19;20019;-80
2022/11/18 15:28:19;;;;;;;15.63;14.32;;;;;;;-0.62;100.00;97406.63;15318849;19;20485;-83
2022/11/18 15:57:13;;;;;;;19.38;17.63;;;;;;;-0.93;100.00;97430.06;15310278;19;20019;-84
2022/11/18 16:02:39;;;;;;;20.02;18.33;;;;;;;-0.93;100.00;97441.50;15313431;19;20014;-83
2022/11/18 16:08:04;;;;;;;18.17;16.52;;;;;;;-0.97;100.00;97441.84;15304072;19;20021;-84
2022/11/18 16:13:32;;;;;;;16.58;15.10;;;;;;;-1.06;100.00;97439.88;15307050;19;20010;-84
2022/11/18 16:18:57;;;;;;;17.48;15.98;;;;;;;-1.09;100.00;97440.94;15311392;19;20011;-83
2022/11/18 16:24:24;;;;;;;19.10;17.40;;;;;;;-1.13;100.00;97455.34;15308745;19;20391;-84
2022/11/18 16:29:51;;;;;;;18.08;16.38;;;;;;;-1.15;100.00;97471.31;15304537;19;20014;-82
2022/11/18 16:41:00;;;;;;;19.77;17.80;;;;;;;-1.39;100.00;97471.28;15301592;19;19987;-86
2022/11/18 17:04:10;;;;;;;24.08;21.77;;;;;;;-1.69;100.00;97516.56;15306285;19;20262;-84
2022/11/18 17:09:36;;;;;;;26.08;23.67;;;;;;;-1.69;100.00;97533.22;15308779;19;20372;-83
2022/11/18 17:15:00;;;;;;;26.73;24.23;;;;;;;-1.78;100.00;97550.56;15299082;19;20018;-84
2022/11/18 17:20:28;;;;;;;25.02;22.65;;;;;;;-1.78;100.00;97549.72;15310124;19;20086;-85
2022/11/18 17:25:53;;;;;;;26.55;24.02;;;;;;;-1.81;100.00;97552.56;15308706;19;20503;-85
2022/11/18 17:31:19;;;;;;;26.88;24.38;;;;;;;-1.78;100.00;97555.00;15312512;19;20370;-84
2022/11/18 17:36:47;;;;;;;26.52;24.13;;;;;;;-1.79;100.00;97555.94;15316291;19;20018;-83
2022/11/18 17:42:22;;;;;;;27.00;24.40;;;;;;;-1.83;100.00;97563.22;15311374;19;20070;-84
2022/11/18 17:47:46;;;;;;;28.60;25.73;;;;;;;-1.89;100.00;97559.22;15308837;19;20010;-83
2022/11/18 17:53:14;;;;;;;26.75;24.25;;;;;;;-1.90;100.00;97577.81;15316529;19;20027;-84
2022/11/18 17:58:38;;;;;;;26.38;23.88;;;;;;;-1.94;100.00;97581.59;15331365;19;20022;-83
2022/11/18 18:04:10;;;;;;;27.38;24.75;;;;;;;-1.98;100.00;97580.97;15314183;19;20074;-84
2022/11/18 18:09:38;;;;;;;27.13;24.63;;;;;;;-1.98;100.00;97582.75;15320838;19;20088;-82
2022/11/18 18:15:03;;;;;;;29.55;26.75;;;;;;;-1.99;100.00;97587.19;15310717;19;20119;-83
2022/11/18 18:20:28;;;;;;;29.33;26.42;;;;;;;-1.98;100.00;97595.94;15309042;19;20013;-83
2022/11/18 18:25:57;;;;;;;29.40;26.40;;;;;;;-1.98;100.00;97607.34;15306814;19;20011;-83
2022/11/18 18:31:22;;;;;;;27.70;24.92;;;;;;;-1.99;100.00;97615.34;15312102;19;20022;-86
2022/11/18 18:36:46;;;;;;;28.33;25.52;;;;;;;-2.00;100.00;97618.97;15329189;19;20014;-85
2022/11/18 18:42:13;;;;;;;28.75;26.02;;;;;;;-1.99;100.00;97632.06;15315897;19;20088;-83
2022/11/18 18:47:43;;;;;;;28.63;25.85;;;;;;;-2.00;100.00;97640.91;15318218;19;20046;-83
2022/11/18 18:53:10;;;;;;;28.55;25.85;;;;;;;-2.00;100.00;97625.09;15313203;19;20031;-83
2022/11/18 18:58:37;;;;;;;29.25;26.27;;;;;;;-2.03;100.00;97617.38;15320769;19;20074;-84
2022/11/18 19:04:12;;;;;;;29.42;26.52;;;;;;;-1.99;100.00;97618.00;15315643;19;20018;-83
2022/11/18 19:09:41;;;;;;;30.55;27.45;;;;;;;-1.98;100.00;97622.34;15320344;19;20019;-85
2022/11/18 19:15:09;;;;;;;31.35;27.95;;;;;;;-2.00;100.00;97635.63;15320180;19;20014;-85
2022/11/18 19:20:40;;;;;;;30.45;27.23;;;;;;;-1.97;100.00;97630.16;15340379;19;20007;-85
2022/11/18 19:25:56;;;;;;;31.25;28.02;;;;;;;-1.96;100.00;97637.13;15309764;19;20019;-82
2022/11/18 19:31:24;;;;;;;30.05;27.02;;;;;;;-1.97;100.00;97635.44;15315849;19;20433;-83
2022/11/18 19:36:50;;;;;;;30.73;27.55;;;;;;;-1.96;100.00;97644.19;15318018;19;20003;-84
2022/11/18 19:42:18;;;;;;;30.52;27.23;;;;;;;-1.94;100.00;97640.50;15310006;19;20025;-83
2022/11/18 19:47:46;;;;;;;31.90;28.65;;;;;;;-1.91;100.00;97657.94;15313999;19;20015;-84
2022/11/18 19:58:58;;;;;;;33.40;29.10;;;;;;;-1.90;100.00;97678.97;15313474;19;20070;-84
2022/11/18 20:04:33;;;;;;;31.10;27.83;;;;;;;-1.90;100.00;97678.13;15305281;19;20013;-85
2022/11/18 20:09:59;;;;;;;31.65;28.35;;;;;;;-1.90;100.00;97681.59;15312420;19;20083;-84
2022/11/18 20:15:24;;;;;;;30.70;27.35;;;;;;;-1.93;100.00;97683.59;15311453;19;20006;-84
2022/11/18 20:20:52;;;;;;;29.35;26.25;;;;;;;-1.92;100.00;97688.75;15307084;19;20018;-83
2022/11/18 20:26:20;;;;;;;31.10;27.70;;;;;;;-1.93;100.00;97689.72;15279348;19;20101;-84
2022/11/18 20:31:46;;;;;;;31.65;28.27;;;;;;;-1.96;100.00;97699.63;15306603;19;20371;-84
2022/11/18 20:37:16;;;;;;;34.10;30.08;;;;;;;-2.00;100.00;97688.44;15305521;19;20014;-84
2022/11/18 20:48:22;;;;;;;32.25;28.33;;;;;;;-2.00;100.00;97706.06;15310667;19;20054;-83
2022/11/18 20:53:49;;;;;;;27.90;24.92;;;;;;;-2.03;100.00;97717.66;15307886;19;20032;-84
2022/11/18 20:59:14;;;;;;;24.23;21.63;;;;;;;-2.03;100.00;97721.16;15308417;19;20027;-83
2022/11/18 21:04:46;;;;;;;22.90;20.40;;;;;;;-2.03;100.00;97730.84;15305610;19;20011;-83
2022/11/18 21:10:19;;;;;;;20.20;18.02;;;;;;;-2.12;100.00;97726.19;15314176;19;20014;-82
2022/11/18 21:15:43;;;;;;;20.20;17.45;;;;;;;-2.13;100.00;97735.91;15301471;19;20020;-83
2022/11/18 21:26:49;;;;;;;21.73;19.35;;;;;;;-2.20;100.00;97742.50;15311962;19;20552;-83
2022/11/18 21:32:14;;;;;;;19.92;17.92;;;;;;;-2.23;100.00;97742.69;15306544;19;20018;-82
2022/11/18 21:37:41;;;;;;;21.02;18.55;;;;;;;-2.25;100.00;97736.69;15307920;19;20035;-83
2022/11/18 21:43:08;;;;;;;18.52;16.73;;;;;;;-2.28;100.00;97736.88;15310692;19;20375;-82
2022/11/18 21:48:33;;;;;;;18.00;16.10;;;;;;;-2.34;100.00;97746.84;15326550;19;20503;-80
2022/11/18 21:53:58;;;;;;;17.15;15.45;;;;;;;-2.34;100.00;97757.41;15316379;19;20484;-80
2022/11/18 21:59:26;;;;;;;16.25;14.70;;;;;;;-2.36;100.00;97767.25;15313265;19;20023;-82
2022/11/18 22:05:05;;;;;;;16.60;15.00;;;;;;;-2.38;100.00;97761.19;15309242;19;20014;-83
2022/11/18 22:10:30;;;;;;;14.98;13.55;;;;;;;-2.36;100.00;97769.00;15318957;19;20010;-82
2022/11/18 22:16:14;;;;;;;14.27;12.88;;;;;;;-2.40;100.00;97764.84;15323639;19;20015;-79
2022/11/18 22:21:47;;;;;;;11.68;10.57;;;;;;;-2.43;100.00;97765.06;15353141;19;20014;-81
2022/11/18 22:27:29;;;;;;;10.90;9.80;;;;;;;-2.46;100.00;97771.38;15354727;19;20010;-80
2022/11/18 22:32:58;;;;;;;10.52;9.60;;;;;;;-2.48;100.00;97762.72;15331247;19;20003;-82
2022/11/18 22:38:22;;;;;;;9.50;8.70;;;;;;;-2.51;100.00;97763.75;15302761;19;20048;-82
2022/11/18 22:43:54;;;;;;;9.57;8.68;;;;;;;-2.52;100.00;97774.41;15300067;19;20057;-82
2022/11/18 22:49:26;;;;;;;8.32;7.60;;;;;;;-2.53;100.00;97780.63;15300847;19;20011;-80
2022/11/18 22:54:51;;;;;;;8.52;7.47;;;;;;;-2.57;100.00;97776.47;15295550;19;20006;-81
2022/11/18 23:00:17;;;;;;;8.15;7.35;;;;;;;-2.59;100.00;97776.56;15298211;19;20082;-81
2022/11/18 23:05:46;;;;;;;7.43;6.68;;;;;;;-2.59;100.00;97789.75;15297432;19;20011;-81
2022/11/18 23:13:54;;;;;;;6.50;5.90;;;;;;;-2.63;100.00;97797.00;15290973;19;20022;-80
2022/11/18 23:16:58;;;;;;;6.30;5.70;;;;;;;-2.67;100.00;97803.41;15293548;19;20501;-81
2022/11/18 23:22:25;;;;;;;6.85;6.25;;;;;;;-2.67;100.00;97807.84;15300511;19;20007;-81
2022/11/18 23:27:50;;;;;;;6.63;6.03;;;;;;;-2.69;100.00;97815.00;15300534;19;20011;-82
2022/11/18 23:33:15;;;;;;;5.88;5.38;;;;;;;-2.72;100.00;97823.09;15300778;19;20014;-82
2022/11/18 23:38:43;;;;;;;6.63;6.03;;;;;;;-2.73;100.00;97819.63;15303089;19;20494;-81
2022/11/18 23:44:11;;;;;;;6.47;5.88;;;;;;;-2.74;100.00;97819.69;15294677;19;20018;-80
2022/11/18 23:49:35;;;;;;;5.97;5.47;;;;;;;-2.79;100.00;97815.56;15301928;19;20023;-81
2022/11/18 23:55:03;;;;;;;6.18;5.68;;;;;;;-2.80;100.00;97821.78;15297644;19;20021;-81
